sensor_id;sensor_type;location;lat;lon;timestamp;pressure;altitude;pressure_sealevel;temperature;humidity
76592;BME280;65481;47.600;19.682;2023-02-01T00:00:32;100209.16;;;2.87;100.00
76592;BME280;65481;47.600;19.682;2023-02-01T00:05:34;100199.00;;;2.93;100.00
76592;BME280;65481;47.600;19.682;2023-02-01T00:10:35;100191.47;;;2.98;100.00
76592;BME280;65481;47.600;19.682;2023-02-01T00:15:36;100191.91;;;3.01;100.00
76592;BME280;65481;47.600;19.682;2023-02-01T00:20:36;100200.09;;;2.98;100.00
76592;BME280;65481;47.600;19.682;2023-02-01T00:25:37;100203.41;;;2.92;100.00
76592;BME280;65481;47.600;19.682;2023-02-01T00:30:38;100190.38;;;2.92;100.00
76592;BME280;65481;47.600;19.682;2023-02-01T00:35:38;100198.84;;;2.94;100.00
76592;BME280;65481;47.600;19.682;2023-02-01T00:40:39;100203.16;;;3.02;100.00
76592;BME280;65481;47.600;19.682;2023-02-01T00:45:39;100207.03;;;3.06;100.00
76592;BME280;65481;47.600;19.682;2023-02-01T00:50:44;100196.94;;;3.03;100.00
76592;BME280;65481;47.600;19.682;2023-02-01T00:55:46;100198.56;;;3.04;100.00
76592;BME280;65481;47.600;19.682;2023-02-01T01:00:47;100189.84;;;2.97;100.00
76592;BME280;65481;47.600;19.682;2023-02-01T01:05:49;100193.28;;;2.97;100.00
76592;BME280;65481;47.600;19.682;2023-02-01T01:10:50;100192.28;;;2.98;100.00
76592;BME280;65481;47.600;19.682;2023-02-01T01:15:50;100182.38;;;2.94;100.00
76592;BME280;65481;47.600;19.682;2023-02-01T01:20:51;100168.53;;;2.93;100.00
76592;BME280;65481;47.600;19.682;2023-02-01T01:25:51;100181.56;;;2.93;100.00
76592;BME280;65481;47.600;19.682;2023-02-01T01:30:52;100159.91;;;2.93;100.00
76592;BME280;65481;47.600;19.682;2023-02-01T01:35:52;100154.16;;;2.97;100.00
76592;BME280;65481;47.600;19.682;2023-02-01T01:40:53;100160.34;;;3.11;100.00
76592;BME280;65481;47.600;19.682;2023-02-01T01:45:54;100140.41;;;3.33;100.00
76592;BME280;65481;47.600;19.682;2023-02-01T01:51:01;100139.13;;;3.66;100.00
76592;BME280;65481;47.600;19.682;2023-02-01T01:56:04;100136.50;;;3.81;100.00
76592;BME280;65481;47.600;19.682;2023-02-01T02:01:04;100151.84;;;3.91;100.00
76592;BME280;65481;47.600;19.682;2023-02-01T02:11:31;100140.53;;;4.05;100.00
76592;BME280;65481;47.600;19.682;2023-02-01T02:37:46;100120.94;;;3.51;100.00
76592;BME280;65481;47.600;19.682;2023-02-01T02:43:10;100129.97;;;3.33;100.00
76592;BME280;65481;47.600;19.682;2023-02-01T02:48:36;100132.94;;;3.15;100.00
76592;BME280;65481;47.600;19.682;2023-02-01T02:53:52;100128.63;;;3.08;100.00
76592;BME280;65481;47.600;19.682;2023-02-01T02:59:19;100122.59;;;2.92;100.00
76592;BME280;65481;47.600;19.682;2023-02-01T03:04:39;100115.50;;;2.86;100.00
76592;BME280;65481;47.600;19.682;2023-02-01T03:09:41;100111.38;;;2.77;100.00
76592;BME280;65481;47.600;19.682;2023-02-01T03:14:49;100103.19;;;2.65;100.00
76592;BME280;65481;47.600;19.682;2023-02-01T03:19:53;100112.97;;;2.63;100.00
76592;BME280;65481;47.600;19.682;2023-02-01T03:25:01;100103.09;;;2.58;100.00
76592;BME280;65481;47.600;19.682;2023-02-01T03:30:08;100097.28;;;2.71;100.00
76592;BME280;65481;47.600;19.682;2023-02-01T03:35:10;100092.88;;;2.86;100.00
76592;BME280;65481;47.600;19.682;2023-02-01T03:40:13;100090.63;;;2.98;100.00
76592;BME280;65481;47.600;19.682;2023-02-01T03:45:33;100097.34;;;3.08;100.00
76592;BME280;65481;47.600;19.682;2023-02-01T03:50:36;100099.03;;;3.15;100.00
76592;BME280;65481;47.600;19.682;2023-02-01T03:55:40;100093.09;;;3.22;100.00
76592;BME280;65481;47.600;19.682;2023-02-01T04:00:45;100089.94;;;3.26;100.00
76592;BME280;65481;47.600;19.682;2023-02-01T04:05:57;100084.81;;;3.33;100.00
76592;BME280;65481;47.600;19.682;2023-02-01T04:10:58;100084.81;;;3.33;100.00
76592;BME280;65481;47.600;19.682;2023-02-01T04:15:58;100075.91;;;3.27;100.00
76592;BME280;65481;47.600;19.682;2023-02-01T04:20:59;100073.50;;;3.26;100.00
76592;BME280;65481;47.600;19.682;2023-02-01T04:26:00;100065.84;;;3.24;100.00
76592;BME280;65481;47.600;19.682;2023-02-01T04:31:01;100079.09;;;3.23;100.00
76592;BME280;65481;47.600;19.682;2023-02-01T04:36:02;100080.44;;;3.18;100.00
76592;BME280;65481;47.600;19.682;2023-02-01T04:41:02;100077.75;;;3.12;100.00
76592;BME280;65481;47.600;19.682;2023-02-01T04:46:03;100088.53;;;3.09;100.00
76592;BME280;65481;47.600;19.682;2023-02-01T04:51:05;100092.13;;;3.08;100.00
76592;BME280;65481;47.600;19.682;2023-02-01T04:56:06;100104.38;;;3.07;100.00
76592;BME280;65481;47.600;19.682;2023-02-01T05:01:06;100111.56;;;3.05;100.00
76592;BME280;65481;47.600;19.682;2023-02-01T05:06:07;100123.97;;;3.03;100.00
76592;BME280;65481;47.600;19.682;2023-02-01T05:11:08;100117.75;;;3.04;100.00
76592;BME280;65481;47.600;19.682;2023-02-01T05:16:28;100120.38;;;3.04;100.00
76592;BME280;65481;47.600;19.682;2023-02-01T05:21:29;100106.06;;;3.00;100.00
76592;BME280;65481;47.600;19.682;2023-02-01T05:26:29;100105.28;;;2.99;100.00
76592;BME280;65481;47.600;19.682;2023-02-01T05:31:30;100115.22;;;2.96;100.00
76592;BME280;65481;47.600;19.682;2023-02-01T05:36:31;100116.41;;;2.93;100.00
76592;BME280;65481;47.600;19.682;2023-02-01T05:41:31;100127.19;;;2.90;100.00
76592;BME280;65481;47.600;19.682;2023-02-01T05:46:32;100114.34;;;2.88;100.00
76592;BME280;65481;47.600;19.682;2023-02-01T05:51:32;100115.16;;;2.89;100.00
76592;BME280;65481;47.600;19.682;2023-02-01T05:56:34;100113.16;;;2.91;100.00
76592;BME280;65481;47.600;19.682;2023-02-01T06:01:34;100116.75;;;2.90;100.00
76592;BME280;65481;47.600;19.682;2023-02-01T06:06:35;100123.41;;;2.93;100.00
76592;BME280;65481;47.600;19.682;2023-02-01T06:11:36;100131.22;;;2.93;100.00
76592;BME280;65481;47.600;19.682;2023-02-01T06:16:37;100131.59;;;2.90;100.00
76592;BME280;65481;47.600;19.682;2023-02-01T06:21:37;100135.28;;;2.95;100.00
76592;BME280;65481;47.600;19.682;2023-02-01T06:26:38;100132.84;;;2.94;100.00
76592;BME280;65481;47.600;19.682;2023-02-01T06:31:40;100124.88;;;2.95;100.00
76592;BME280;65481;47.600;19.682;2023-02-01T06:36:42;100139.41;;;3.05;100.00
76592;BME280;65481;47.600;19.682;2023-02-01T06:41:46;100130.69;;;3.12;100.00
76592;BME280;65481;47.600;19.682;2023-02-01T06:46:46;100139.69;;;3.25;100.00
76592;BME280;65481;47.600;19.682;2023-02-01T06:51:47;100135.41;;;3.39;100.00
76592;BME280;65481;47.600;19.682;2023-02-01T06:56:48;100151.25;;;3.52;100.00
76592;BME280;65481;47.600;19.682;2023-02-01T07:01:48;100145.91;;;3.60;100.00
76592;BME280;65481;47.600;19.682;2023-02-01T07:06:49;100138.06;;;3.75;100.00
76592;BME280;65481;47.600;19.682;2023-02-01T07:11:49;100147.00;;;3.88;100.00
76592;BME280;65481;47.600;19.682;2023-02-01T07:16:50;100143.66;;;4.16;100.00
76592;BME280;65481;47.600;19.682;2023-02-01T07:21:51;100141.09;;;4.73;100.00
76592;BME280;65481;47.600;19.682;2023-02-01T07:26:51;100133.69;;;5.18;100.00
76592;BME280;65481;47.600;19.682;2023-02-01T07:31:51;100148.16;;;5.56;98.14
76592;BME280;65481;47.600;19.682;2023-02-01T07:36:52;100144.88;;;6.36;91.72
76592;BME280;65481;47.600;19.682;2023-02-01T07:41:52;100158.34;;;6.93;87.07
76592;BME280;65481;47.600;19.682;2023-02-01T07:46:53;100161.69;;;7.21;82.96
76592;BME280;65481;47.600;19.682;2023-02-01T07:51:54;100165.94;;;7.74;77.86
76592;BME280;65481;47.600;19.682;2023-02-01T07:56:54;100164.13;;;7.68;77.34
76592;BME280;65481;47.600;19.682;2023-02-01T08:01:55;100174.75;;;7.86;76.61
76592;BME280;65481;47.600;19.682;2023-02-01T08:06:55;100173.84;;;8.31;73.45
76592;BME280;65481;47.600;19.682;2023-02-01T08:11:56;100181.84;;;8.94;69.66
76592;BME280;65481;47.600;19.682;2023-02-01T08:16:56;100179.97;;;9.20;66.92
76592;BME280;65481;47.600;19.682;2023-02-01T08:21:56;100188.03;;;9.55;64.20
76592;BME280;65481;47.600;19.682;2023-02-01T08:26:57;100194.41;;;9.97;61.40
76592;BME280;65481;47.600;19.682;2023-02-01T08:31:58;100202.88;;;10.29;59.97
76592;BME280;65481;47.600;19.682;2023-02-01T08:36:58;100213.28;;;10.24;59.42
76592;BME280;65481;47.600;19.682;2023-02-01T08:41:59;100210.72;;;10.48;56.60
76592;BME280;65481;47.600;19.682;2023-02-01T08:47:18;100220.97;;;10.92;54.34
76592;BME280;65481;47.600;19.682;2023-02-01T08:52:18;100236.19;;;11.14;54.45
76592;BME280;65481;47.600;19.682;2023-02-01T08:57:19;100243.78;;;10.98;54.09
76592;BME280;65481;47.600;19.682;2023-02-01T09:02:19;100238.75;;;10.97;52.82
76592;BME280;65481;47.600;19.682;2023-02-01T09:07:20;100235.41;;;11.13;52.57
76592;BME280;65481;47.600;19.682;2023-02-01T09:12:20;100240.81;;;11.06;51.58
76592;BME280;65481;47.600;19.682;2023-02-01T09:17:21;100223.88;;;11.43;51.28
76592;BME280;65481;47.600;19.682;2023-02-01T09:22:22;100228.50;;;11.36;50.62
76592;BME280;65481;47.600;19.682;2023-02-01T09:27:22;100218.09;;;11.58;50.31
76592;BME280;65481;47.600;19.682;2023-02-01T09:32:23;100222.13;;;11.90;48.79
76592;BME280;65481;47.600;19.682;2023-02-01T09:37:24;100206.72;;;10.57;52.42
76592;BME280;65481;47.600;19.682;2023-02-01T09:47:54;100213.66;;;8.86;58.25
76592;BME280;65481;47.600;19.682;2023-02-01T09:53:00;100198.47;;;8.37;61.42
76592;BME280;65481;47.600;19.682;2023-02-01T09:58:22;100195.22;;;8.92;59.65
76592;BME280;65481;47.600;19.682;2023-02-01T10:03:33;100188.28;;;8.98;59.20
76592;BME280;65481;47.600;19.682;2023-02-01T10:14:10;100174.34;;;10.62;54.19
76592;BME280;65481;47.600;19.682;2023-02-01T10:24:39;100160.66;;;11.54;50.15
76592;BME280;65481;47.600;19.682;2023-02-01T10:29:45;100160.44;;;11.84;48.21
76592;BME280;65481;47.600;19.682;2023-02-01T10:35:04;100146.59;;;11.65;48.05
76592;BME280;65481;47.600;19.682;2023-02-01T10:40:25;100156.81;;;11.73;48.33
76592;BME280;65481;47.600;19.682;2023-02-01T10:45:28;100148.41;;;11.93;48.05
76592;BME280;65481;47.600;19.682;2023-02-01T10:50:35;100147.69;;;11.52;48.82
76592;BME280;65481;47.600;19.682;2023-02-01T10:55:47;100148.78;;;10.51;52.23
76592;BME280;65481;47.600;19.682;2023-02-01T11:00:58;100136.53;;;11.79;49.29
76592;BME280;65481;47.600;19.682;2023-02-01T11:06:03;100136.22;;;11.46;47.79
76592;BME280;65481;47.600;19.682;2023-02-01T11:11:09;100127.53;;;11.34;49.41
76592;BME280;65481;47.600;19.682;2023-02-01T11:16:13;100108.47;;;12.07;47.59
76592;BME280;65481;47.600;19.682;2023-02-01T11:21:14;100106.84;;;11.60;47.32
76592;BME280;65481;47.600;19.682;2023-02-01T11:26:26;100115.28;;;12.03;45.91
76592;BME280;65481;47.600;19.682;2023-02-01T11:31:28;100106.53;;;11.85;46.62
76592;BME280;65481;47.600;19.682;2023-02-01T11:36:32;100109.78;;;11.75;47.60
76592;BME280;65481;47.600;19.682;2023-02-01T11:41:34;100088.28;;;11.26;47.78
76592;BME280;65481;47.600;19.682;2023-02-01T11:46:40;100096.63;;;11.05;48.30
76592;BME280;65481;47.600;19.682;2023-02-01T12:08:04;100069.59;;;9.18;54.51
76592;BME280;65481;47.600;19.682;2023-02-01T12:24:20;100052.41;;;7.97;60.08
76592;BME280;65481;47.600;19.682;2023-02-01T12:45:36;100063.41;;;6.51;100.00
76592;BME280;65481;47.600;19.682;2023-02-01T12:50:47;100066.69;;;6.19;100.00
76592;BME280;65481;47.600;19.682;2023-02-01T12:55:54;100066.88;;;6.11;100.00
76592;BME280;65481;47.600;19.682;2023-02-01T13:01:09;100064.22;;;5.98;100.00
76592;BME280;65481;47.600;19.682;2023-02-01T13:06:26;100065.41;;;5.88;100.00
76592;BME280;65481;47.600;19.682;2023-02-01T13:11:38;100055.94;;;5.81;100.00
76592;BME280;65481;47.600;19.682;2023-02-01T13:16:44;100046.09;;;5.76;100.00
76592;BME280;65481;47.600;19.682;2023-02-01T13:21:49;100038.84;;;5.85;100.00
76592;BME280;65481;47.600;19.682;2023-02-01T13:26:54;100023.53;;;5.75;100.00
76592;BME280;65481;47.600;19.682;2023-02-01T13:42:29;100010.63;;;5.67;100.00
76592;BME280;65481;47.600;19.682;2023-02-01T13:47:35;100010.66;;;5.80;100.00
76592;BME280;65481;47.600;19.682;2023-02-01T13:52:43;100009.03;;;5.72;100.00
76592;BME280;65481;47.600;19.682;2023-02-01T13:57:44;100016.88;;;5.72;100.00
76592;BME280;65481;47.600;19.682;2023-02-01T14:02:47;100018.88;;;5.57;100.00
76592;BME280;65481;47.600;19.682;2023-02-01T14:13:30;100025.13;;;5.56;100.00
76592;BME280;65481;47.600;19.682;2023-02-01T14:24:02;100071.28;;;5.15;100.00
76592;BME280;65481;47.600;19.682;2023-02-01T14:29:24;100127.28;;;4.57;100.00
76592;BME280;65481;47.600;19.682;2023-02-01T14:40:27;100102.78;;;3.43;100.00
76592;BME280;65481;47.600;19.682;2023-02-01T15:01:27;100060.50;;;3.91;100.00
76592;BME280;65481;47.600;19.682;2023-02-01T15:06:53;100066.38;;;4.00;100.00
76592;BME280;65481;47.600;19.682;2023-02-01T15:12:03;100072.19;;;3.95;100.00
76592;BME280;65481;47.600;19.682;2023-02-01T15:17:16;100070.75;;;3.92;100.00
76592;BME280;65481;47.600;19.682;2023-02-01T15:22:19;100064.41;;;3.80;100.00
76592;BME280;65481;47.600;19.682;2023-02-01T15:27:20;100071.91;;;3.68;100.00
76592;BME280;65481;47.600;19.682;2023-02-01T15:32:39;100068.25;;;3.62;100.00
76592;BME280;65481;47.600;19.682;2023-02-01T15:37:40;100062.56;;;3.52;100.00
76592;BME280;65481;47.600;19.682;2023-02-01T15:42:54;100055.81;;;3.43;100.00
76592;BME280;65481;47.600;19.682;2023-02-01T15:47:56;100059.25;;;3.43;100.00
76592;BME280;65481;47.600;19.682;2023-02-01T15:52:57;100063.00;;;3.41;100.00
76592;BME280;65481;47.600;19.682;2023-02-01T15:57:58;100051.94;;;3.39;100.00
76592;BME280;65481;47.600;19.682;2023-02-01T16:03:02;100054.75;;;3.37;100.00
76592;BME280;65481;47.600;19.682;2023-02-01T16:08:10;100051.72;;;3.33;100.00
76592;BME280;65481;47.600;19.682;2023-02-01T16:13:12;100053.69;;;3.31;100.00
76592;BME280;65481;47.600;19.682;2023-02-01T16:18:14;100050.91;;;3.33;100.00
76592;BME280;65481;47.600;19.682;2023-02-01T16:23:14;100059.91;;;3.30;100.00
76592;BME280;65481;47.600;19.682;2023-02-01T16:28:15;100066.91;;;3.30;100.00
76592;BME280;65481;47.600;19.682;2023-02-01T16:33:18;100072.69;;;3.25;100.00
76592;BME280;65481;47.600;19.682;2023-02-01T16:38:22;100080.16;;;3.13;100.00
76592;BME280;65481;47.600;19.682;2023-02-01T16:43:24;100078.72;;;3.11;100.00
76592;BME280;65481;47.600;19.682;2023-02-01T16:48:29;100072.25;;;3.07;100.00
76592;BME280;65481;47.600;19.682;2023-02-01T16:53:31;100095.09;;;3.20;100.00
76592;BME280;65481;47.600;19.682;2023-02-01T16:58:32;100089.03;;;3.34;100.00
76592;BME280;65481;47.600;19.682;2023-02-01T17:03:32;100083.34;;;3.45;100.00
76592;BME280;65481;47.600;19.682;2023-02-01T17:08:36;100081.44;;;3.54;100.00
76592;BME280;65481;47.600;19.682;2023-02-01T17:13:38;100077.91;;;3.62;100.00
76592;BME280;65481;47.600;19.682;2023-02-01T17:18:41;100069.50;;;3.67;100.00
76592;BME280;65481;47.600;19.682;2023-02-01T17:23:42;100065.28;;;3.66;100.00
76592;BME280;65481;47.600;19.682;2023-02-01T17:28:43;100064.41;;;3.58;100.00
76592;BME280;65481;47.600;19.682;2023-02-01T17:33:44;100059.31;;;3.50;100.00
76592;BME280;65481;47.600;19.682;2023-02-01T17:38:46;100073.34;;;3.49;100.00
76592;BME280;65481;47.600;19.682;2023-02-01T17:43:48;100072.34;;;3.50;100.00
76592;BME280;65481;47.600;19.682;2023-02-01T17:48:49;100074.84;;;3.37;100.00
76592;BME280;65481;47.600;19.682;2023-02-01T17:53:50;100085.34;;;3.28;100.00
76592;BME280;65481;47.600;19.682;2023-02-01T17:58:50;100091.91;;;3.24;100.00
76592;BME280;65481;47.600;19.682;2023-02-01T18:03:51;100089.88;;;3.20;100.00
76592;BME280;65481;47.600;19.682;2023-02-01T18:08:52;100085.66;;;3.18;100.00
76592;BME280;65481;47.600;19.682;2023-02-01T18:13:54;100088.53;;;3.09;100.00
76592;BME280;65481;47.600;19.682;2023-02-01T18:18:56;100091.53;;;2.91;100.00
76592;BME280;65481;47.600;19.682;2023-02-01T18:24:01;100087.47;;;2.88;100.00
76592;BME280;65481;47.600;19.682;2023-02-01T18:29:03;100083.16;;;2.80;100.00
76592;BME280;65481;47.600;19.682;2023-02-01T18:34:04;100069.41;;;2.71;100.00
76592;BME280;65481;47.600;19.682;2023-02-01T18:39:04;100070.84;;;2.74;100.00
76592;BME280;65481;47.600;19.682;2023-02-01T18:44:08;100056.03;;;2.75;100.00
76592;BME280;65481;47.600;19.682;2023-02-01T18:49:12;100057.72;;;2.67;100.00
76592;BME280;65481;47.600;19.682;2023-02-01T18:54:17;100062.06;;;2.60;100.00
76592;BME280;65481;47.600;19.682;2023-02-01T18:59:18;100059.69;;;2.65;100.00
76592;BME280;65481;47.600;19.682;2023-02-01T19:04:26;100063.28;;;2.94;100.00
76592;BME280;65481;47.600;19.682;2023-02-01T19:09:27;100065.69;;;3.11;100.00
76592;BME280;65481;47.600;19.682;2023-02-01T19:14:28;100070.28;;;3.24;100.00
76592;BME280;65481;47.600;19.682;2023-02-01T19:19:29;100057.94;;;3.32;100.00
76592;BME280;65481;47.600;19.682;2023-02-01T19:24:29;100044.41;;;3.44;100.00
76592;BME280;65481;47.600;19.682;2023-02-01T19:29:31;100052.34;;;3.57;100.00
76592;BME280;65481;47.600;19.682;2023-02-01T19:34:31;100049.25;;;3.69;100.00
76592;BME280;65481;47.600;19.682;2023-02-01T19:39:35;100036.69;;;3.79;100.00
76592;BME280;65481;47.600;19.682;2023-02-01T19:44:37;100033.50;;;3.84;100.00
76592;BME280;65481;47.600;19.682;2023-02-01T19:49:38;100023.69;;;3.86;100.00
76592;BME280;65481;47.600;19.682;2023-02-01T19:54:40;100008.22;;;3.84;100.00
76592;BME280;65481;47.600;19.682;2023-02-01T19:59:42;100017.06;;;3.83;100.00
76592;BME280;65481;47.600;19.682;2023-02-01T20:04:43;100015.38;;;3.75;100.00
76592;BME280;65481;47.600;19.682;2023-02-01T20:09:45;100010.91;;;3.69;100.00
76592;BME280;65481;47.600;19.682;2023-02-01T20:14:46;100004.53;;;3.72;100.00
76592;BME280;65481;47.600;19.682;2023-02-01T20:19:46;100008.13;;;3.71;100.00
76592;BME280;65481;47.600;19.682;2023-02-01T20:24:47;100005.91;;;3.68;100.00
76592;BME280;65481;47.600;19.682;2023-02-01T20:29:50;100000.84;;;3.66;100.00
76592;BME280;65481;47.600;19.682;2023-02-01T20:34:51;100003.03;;;3.62;100.00
76592;BME280;65481;47.600;19.682;2023-02-01T20:39:54;100007.81;;;3.59;100.00
76592;BME280;65481;47.600;19.682;2023-02-01T20:44:55;100001.16;;;3.56;100.00
76592;BME280;65481;47.600;19.682;2023-02-01T20:49:56;100008.88;;;3.64;100.00
76592;BME280;65481;47.600;19.682;2023-02-01T20:54:57;100013.47;;;3.62;100.00
76592;BME280;65481;47.600;19.682;2023-02-01T20:59:58;100019.72;;;3.68;100.00
76592;BME280;65481;47.600;19.682;2023-02-01T21:04:58;100001.28;;;3.70;100.00
76592;BME280;65481;47.600;19.682;2023-02-01T21:09:59;100008.59;;;3.81;100.00
76592;BME280;65481;47.600;19.682;2023-02-01T21:15:00;100013.41;;;3.77;100.00
76592;BME280;65481;47.600;19.682;2023-02-01T21:20:00;100010.16;;;3.75;100.00
76592;BME280;65481;47.600;19.682;2023-02-01T21:25:01;100020.97;;;3.72;100.00
76592;BME280;65481;47.600;19.682;2023-02-01T21:30:03;100022.47;;;3.60;100.00
76592;BME280;65481;47.600;19.682;2023-02-01T21:35:04;100018.19;;;3.52;100.00
76592;BME280;65481;47.600;19.682;2023-02-01T21:40:05;100031.19;;;3.45;100.00
76592;BME280;65481;47.600;19.682;2023-02-01T21:45:06;100033.97;;;3.44;100.00
76592;BME280;65481;47.600;19.682;2023-02-01T21:50:16;100037.94;;;3.40;100.00
76592;BME280;65481;47.600;19.682;2023-02-01T21:55:16;100038.47;;;3.35;100.00
76592;BME280;65481;47.600;19.682;2023-02-01T22:00:17;100024.44;;;3.36;100.00
76592;BME280;65481;47.600;19.682;2023-02-01T22:05:18;100031.28;;;3.37;100.00
76592;BME280;65481;47.600;19.682;2023-02-01T22:10:18;100028.25;;;3.33;100.00
76592;BME280;65481;47.600;19.682;2023-02-01T22:15:19;100030.41;;;3.30;100.00
76592;BME280;65481;47.600;19.682;2023-02-01T22:20:19;100024.19;;;3.31;100.00
76592;BME280;65481;47.600;19.682;2023-02-01T22:25:20;100028.63;;;3.30;100.00
76592;BME280;65481;47.600;19.682;2023-02-01T22:30:20;100026.63;;;3.32;100.00
76592;BME280;65481;47.600;19.682;2023-02-01T22:35:21;100003.28;;;3.46;100.00
76592;BME280;65481;47.600;19.682;2023-02-01T22:40:22;100002.19;;;3.55;100.00
76592;BME280;65481;47.600;19.682;2023-02-01T22:45:22;99991.75;;;3.55;100.00
76592;BME280;65481;47.600;19.682;2023-02-01T22:50:23;99981.22;;;3.48;100.00
76592;BME280;65481;47.600;19.682;2023-02-01T22:55:23;99975.78;;;3.43;100.00
76592;BME280;65481;47.600;19.682;2023-02-01T23:00:24;99970.06;;;3.33;100.00
76592;BME280;65481;47.600;19.682;2023-02-01T23:05:25;99972.84;;;3.31;100.00
76592;BME280;65481;47.600;19.682;2023-02-01T23:10:25;99959.81;;;3.31;100.00
76592;BME280;65481;47.600;19.682;2023-02-01T23:15:26;99948.28;;;3.19;100.00
76592;BME280;65481;47.600;19.682;2023-02-01T23:20:26;99948.63;;;3.16;100.00
76592;BME280;65481;47.600;19.682;2023-02-01T23:25:27;99945.03;;;3.17;100.00
76592;BME280;65481;47.600;19.682;2023-02-01T23:30:28;99948.69;;;3.23;100.00
76592;BME280;65481;47.600;19.682;2023-02-01T23:35:28;99955.59;;;3.30;100.00
76592;BME280;65481;47.600;19.682;2023-02-01T23:40:29;99941.88;;;3.43;100.00
76592;BME280;65481;47.600;19.682;2023-02-01T23:45:29;99949.19;;;3.55;100.00
76592;BME280;65481;47.600;19.682;2023-02-01T23:50:30;99952.03;;;3.60;100.00
76592;BME280;65481;47.600;19.682;2023-02-01T23:55:30;99943.25;;;3.68;100.00
